Time;durP1;ratioP1;P1;durP2;ratioP2;P2;SDS_P1;SDS_P2;PMS_P1;PMS_P2;Temp;Humidity;BMP_temperature;BMP_pressure;BME280_temperature;BME280_humidity;BME280_pressure;Samples;Min_cycle;Max_cycle;Signal;HPM_P1;HPM_P2
2021/03/19 00:01:29;;;;;;;;;;;20.30;28.40;;;;;;478491;249;2167;-68
2021/03/19 00:03:30;;;;;;;;;;;20.20;28.40;;;;;;478452;249;1079;-68
2021/03/19 00:05:31;;;;;;;;;;;20.20;28.50;;;;;;478610;249;1037;-68
2021/03/19 00:07:33;;;;;;;;;;;20.20;28.40;;;;;;478481;249;1148;-68
2021/03/19 00:09:34;;;;;;;;;;;20.10;28.50;;;;;;478571;249;1034;-68
2021/03/19 00:11:35;;;;;;;;;;;20.10;28.40;;;;;;478459;249;1164;-68
2021/03/19 00:13:36;;;;;;;;;;;20.20;28.50;;;;;;478481;249;1095;-68
2021/03/19 00:15:38;;;;;;;;;;;20.10;28.50;;;;;;478476;249;1168;-68
2021/03/19 00:17:39;;;;;;;;;;;20.10;28.60;;;;;;478520;249;1085;-68
2021/03/19 00:19:40;;;;;;;;;;;20.00;28.70;;;;;;478507;249;1086;-68
2021/03/19 00:21:42;;;;;;;;;;;20.10;28.70;;;;;;478474;249;2178;-68
2021/03/19 00:23:43;;;;;;;;;;;20.10;28.60;;;;;;478526;249;1049;-68
2021/03/19 00:25:44;;;;;;;;;;;20.20;28.60;;;;;;478515;249;936;-68
2021/03/19 00:27:45;;;;;;;;;;;20.00;28.60;;;;;;478468;249;1243;-68
2021/03/19 00:29:47;;;;;;;;;;;20.00;28.70;;;;;;478529;249;1096;-68
2021/03/19 00:31:48;;;;;;;;;;;20.00;28.80;;;;;;478516;249;1230;-68
2021/03/19 00:33:49;;;;;;;;;;;20.00;28.70;;;;;;478443;249;981;-68
2021/03/19 00:35:50;;;;;;;;;;;20.00;28.70;;;;;;478552;249;1013;-68
2021/03/19 00:37:52;;;;;;;;;;;20.00;28.70;;;;;;478473;249;1068;-68
2021/03/19 00:39:53;;;;;;;;;;;20.00;28.70;;;;;;478474;249;969;-68
2021/03/19 00:41:54;;;;;;;;;;;20.00;28.80;;;;;;478541;249;2174;-69
2021/03/19 00:43:56;;;;;;;;;;;20.00;28.80;;;;;;478517;249;1055;-68
2021/03/19 00:45:57;;;;;;;;;;;20.00;28.80;;;;;;478573;249;1204;-68
2021/03/19 00:47:58;;;;;;;;;;;20.00;28.80;;;;;;478494;249;1331;-68
2021/03/19 00:49:59;;;;;;;;;;;20.00;28.80;;;;;;478515;249;1097;-68
2021/03/19 00:52:01;;;;;;;;;;;20.00;28.80;;;;;;478464;249;1016;-69
2021/03/19 00:54:02;;;;;;;;;;;19.90;28.80;;;;;;478628;249;1049;-68
2021/03/19 00:56:03;;;;;;;;;;;19.90;28.80;;;;;;478477;249;1276;-68
2021/03/19 00:58:05;;;;;;;;;;;19.90;28.80;;;;;;478524;249;1144;-68
2021/03/19 01:00:06;;;;;;;;;;;19.90;28.80;;;;;;478456;249;950;-68
2021/03/19 01:02:07;;;;;;;;;;;19.90;28.80;;;;;;478481;249;2195;-68
2021/03/19 01:04:08;;;;;;;;;;;19.90;28.70;;;;;;478515;249;1071;-68
2021/03/19 01:06:10;;;;;;;;;;;20.00;28.80;;;;;;478479;249;1131;-68
2021/03/19 01:08:11;;;;;;;;;;;20.00;28.70;;;;;;478495;249;1286;-68
2021/03/19 01:10:13;;;;;;;;;;;19.90;28.70;;;;;;478440;249;1046;-68
2021/03/19 01:12:14;;;;;;;;;;;19.90;28.80;;;;;;478467;249;1218;-68
2021/03/19 01:14:15;;;;;;;;;;;19.90;28.80;;;;;;478512;249;1104;-68
2021/03/19 01:16:16;;;;;;;;;;;19.90;28.80;;;;;;478488;249;1337;-68
2021/03/19 01:18:18;;;;;;;;;;;19.90;28.80;;;;;;478538;249;1108;-68
2021/03/19 01:20:19;;;;;;;;;;;19.80;28.90;;;;;;478503;249;1130;-68
2021/03/19 01:22:20;;;;;;;;;;;19.80;28.90;;;;;;478501;249;2207;-68
2021/03/19 01:24:22;;;;;;;;;;;19.80;28.90;;;;;;478506;249;1083;-68
2021/03/19 01:26:23;;;;;;;;;;;19.80;28.90;;;;;;478392;244;1219;-68
2021/03/19 01:28:24;;;;;;;;;;;19.90;28.80;;;;;;478481;249;1176;-68
2021/03/19 01:30:25;;;;;;;;;;;19.90;28.80;;;;;;478528;249;1036;-68
2021/03/19 01:32:27;;;;;;;;;;;19.80;28.80;;;;;;478482;249;1017;-68
2021/03/19 01:34:28;;;;;;;;;;;19.90;28.70;;;;;;478436;249;999;-68
2021/03/19 01:36:29;;;;;;;;;;;19.90;28.80;;;;;;478524;249;1036;-68
2021/03/19 01:38:30;;;;;;;;;;;19.80;28.80;;;;;;478467;249;1017;-68
2021/03/19 01:40:32;;;;;;;;;;;19.70;28.90;;;;;;478484;249;1218;-68
2021/03/19 01:42:34;;;;;;;;;;;19.70;28.90;;;;;;478507;249;2115;-68
2021/03/19 01:44:36;;;;;;;;;;;19.80;28.90;;;;;;478435;249;1031;-68
2021/03/19 01:46:37;;;;;;;;;;;19.70;28.90;;;;;;478462;249;1188;-68
2021/03/19 01:48:38;;;;;;;;;;;19.70;28.90;;;;;;478498;249;1117;-68
2021/03/19 01:50:40;;;;;;;;;;;19.60;28.90;;;;;;478619;249;1019;-69
2021/03/19 01:52:41;;;;;;;;;;;19.70;28.90;;;;;;478473;249;984;-68
2021/03/19 01:54:42;;;;;;;;;;;19.70;28.90;;;;;;478501;249;973;-68
2021/03/19 01:56:43;;;;;;;;;;;19.70;28.90;;;;;;478418;249;1198;-68
2021/03/19 01:58:45;;;;;;;;;;;19.80;28.80;;;;;;478516;249;1020;-68
2021/03/19 02:00:46;;;;;;;;;;;19.80;28.80;;;;;;478466;249;1150;-68
2021/03/19 02:02:47;;;;;;;;;;;19.80;28.90;;;;;;478452;249;2194;-68
2021/03/19 02:04:48;;;;;;;;;;;19.70;28.90;;;;;;478498;249;1080;-69
2021/03/19 02:06:50;;;;;;;;;;;19.80;28.90;;;;;;478485;249;1011;-68
2021/03/19 02:08:51;;;;;;;;;;;19.70;28.80;;;;;;478452;249;1092;-68
2021/03/19 02:10:52;;;;;;;;;;;19.80;28.70;;;;;;478441;249;1028;-68
2021/03/19 02:12:54;;;;;;;;;;;19.80;28.80;;;;;;478592;249;1011;-68
2021/03/19 02:14:55;;;;;;;;;;;19.70;28.80;;;;;;478442;249;984;-68
2021/03/19 02:16:56;;;;;;;;;;;19.70;28.80;;;;;;478467;249;1191;-68
2021/03/19 02:18:57;;;;;;;;;;;19.70;28.90;;;;;;478530;249;1070;-68
2021/03/19 02:20:59;;;;;;;;;;;19.80;28.90;;;;;;478455;249;1049;-68
2021/03/19 02:23:00;;;;;;;;;;;19.80;28.80;;;;;;478435;249;2151;-68
2021/03/19 02:25:01;;;;;;;;;;;19.80;28.80;;;;;;478470;249;1293;-68
2021/03/19 02:27:03;;;;;;;;;;;19.80;28.80;;;;;;478467;249;1043;-68
2021/03/19 02:29:04;;;;;;;;;;;19.90;28.80;;;;;;478571;249;1045;-69
2021/03/19 02:31:05;;;;;;;;;;;19.90;28.70;;;;;;478520;249;1331;-69
2021/03/19 02:33:06;;;;;;;;;;;19.90;28.80;;;;;;478462;249;999;-68
2021/03/19 02:35:08;;;;;;;;;;;19.90;28.70;;;;;;478445;249;957;-68
2021/03/19 02:37:09;;;;;;;;;;;19.90;28.80;;;;;;478434;249;1060;-68
2021/03/19 02:39:10;;;;;;;;;;;19.90;28.70;;;;;;478499;249;1029;-68
2021/03/19 02:41:12;;;;;;;;;;;20.00;28.70;;;;;;478560;249;1189;-68
2021/03/19 02:43:13;;;;;;;;;;;20.00;28.60;;;;;;478447;249;2151;-68
2021/03/19 02:45:14;;;;;;;;;;;20.00;28.60;;;;;;478417;249;1054;-69
2021/03/19 02:47:15;;;;;;;;;;;20.00;28.60;;;;;;478548;249;1217;-68
2021/03/19 02:49:17;;;;;;;;;;;20.00;28.60;;;;;;478548;249;1085;-68
2021/03/19 02:51:18;;;;;;;;;;;20.10;28.60;;;;;;478401;249;990;-68
2021/03/19 02:53:19;;;;;;;;;;;20.10;28.50;;;;;;478429;249;1278;-68
2021/03/19 02:55:20;;;;;;;;;;;20.10;28.60;;;;;;478529;249;969;-68
2021/03/19 02:57:22;;;;;;;;;;;20.00;28.60;;;;;;478460;249;1137;-68
2021/03/19 02:59:23;;;;;;;;;;;20.00;28.60;;;;;;478467;249;1080;-68
2021/03/19 03:01:24;;;;;;;;;;;20.00;28.70;;;;;;478481;244;1383;-68
2021/03/19 03:03:25;;;;;;;;;;;20.00;28.60;;;;;;478477;249;2203;-68
2021/03/19 03:05:27;;;;;;;;;;;20.10;28.60;;;;;;478494;249;1052;-68
2021/03/19 03:07:28;;;;;;;;;;;20.20;28.50;;;;;;478388;249;1369;-68
2021/03/19 03:09:29;;;;;;;;;;;20.00;28.50;;;;;;478422;249;1250;-68
2021/03/19 03:11:31;;;;;;;;;;;20.10;28.60;;;;;;478468;249;1327;-68
2021/03/19 03:13:32;;;;;;;;;;;20.10;28.50;;;;;;478542;249;1015;-68
2021/03/19 03:15:33;;;;;;;;;;;20.20;28.40;;;;;;478455;249;1245;-68
2021/03/19 03:17:34;;;;;;;;;;;20.10;28.50;;;;;;478446;249;1246;-68
2021/03/19 03:19:36;;;;;;;;;;;20.20;28.40;;;;;;478469;249;1048;-68
2021/03/19 03:21:37;;;;;;;;;;;20.10;28.40;;;;;;478416;249;1198;-68
2021/03/19 03:23:38;;;;;;;;;;;20.10;28.50;;;;;;478487;249;2190;-68
2021/03/19 03:25:40;;;;;;;;;;;20.10;28.40;;;;;;478529;249;1136;-68
2021/03/19 03:27:41;;;;;;;;;;;20.10;28.50;;;;;;478381;249;1165;-68
2021/03/19 03:29:42;;;;;;;;;;;20.20;28.50;;;;;;478591;249;1015;-68
2021/03/19 03:31:44;;;;;;;;;;;20.10;28.50;;;;;;478470;249;1304;-68
2021/03/19 03:33:45;;;;;;;;;;;20.20;28.50;;;;;;478539;249;984;-68
2021/03/19 03:35:46;;;;;;;;;;;20.10;28.40;;;;;;478452;245;1222;-68
2021/03/19 03:37:47;;;;;;;;;;;20.10;28.60;;;;;;478576;249;1032;-68
2021/03/19 03:39:49;;;;;;;;;;;20.00;28.70;;;;;;478599;249;1051;-68
2021/03/19 03:41:50;;;;;;;;;;;20.10;28.60;;;;;;478545;249;1473;-68
2021/03/19 03:43:51;;;;;;;;;;;20.10;28.50;;;;;;478517;249;2124;-68
2021/03/19 03:45:52;;;;;;;;;;;20.30;28.50;;;;;;478467;249;1398;-68
2021/03/19 03:47:54;;;;;;;;;;;20.30;28.50;;;;;;478484;249;1163;-68
2021/03/19 03:49:55;;;;;;;;;;;20.20;28.40;;;;;;478504;249;1087;-69
2021/03/19 03:51:56;;;;;;;;;;;20.20;28.50;;;;;;478472;249;1099;-68
2021/03/19 03:53:58;;;;;;;;;;;20.10;28.40;;;;;;478586;249;1058;-68
2021/03/19 03:55:59;;;;;;;;;;;20.20;28.50;;;;;;478611;249;1019;-68
2021/03/19 03:58:00;;;;;;;;;;;20.20;28.40;;;;;;478538;249;1058;-68
2021/03/19 04:00:02;;;;;;;;;;;20.20;28.40;;;;;;478563;249;1133;-68
2021/03/19 04:02:03;;;;;;;;;;;20.20;28.40;;;;;;478568;249;1503;-68
2021/03/19 04:04:04;;;;;;;;;;;20.20;28.40;;;;;;478538;249;2179;-68
2021/03/19 04:06:05;;;;;;;;;;;20.30;28.40;;;;;;478524;249;1081;-68
2021/03/19 04:08:06;;;;;;;;;;;20.30;28.40;;;;;;478557;249;1071;-68
2021/03/19 04:10:08;;;;;;;;;;;20.10;28.40;;;;;;478463;249;1092;-68
2021/03/19 04:12:09;;;;;;;;;;;20.10;28.50;;;;;;478447;249;1239;-68
2021/03/19 04:14:10;;;;;;;;;;;20.00;28.50;;;;;;478483;249;1061;-68
2021/03/19 04:16:12;;;;;;;;;;;20.00;28.50;;;;;;478436;249;1463;-68
2021/03/19 04:18:13;;;;;;;;;;;20.10;28.50;;;;;;478555;249;1131;-68
2021/03/19 04:20:14;;;;;;;;;;;20.00;28.50;;;;;;478517;249;981;-68
2021/03/19 04:22:15;;;;;;;;;;;20.00;28.60;;;;;;478528;249;1038;-68
2021/03/19 04:24:17;;;;;;;;;;;19.90;28.60;;;;;;478450;249;2195;-68
2021/03/19 04:26:18;;;;;;;;;;;19.90;28.70;;;;;;478418;249;1225;-68
2021/03/19 04:28:19;;;;;;;;;;;20.00;28.80;;;;;;478510;249;991;-68
2021/03/19 04:30:21;;;;;;;;;;;19.90;28.70;;;;;;478515;249;1033;-68
2021/03/19 04:32:22;;;;;;;;;;;19.80;28.70;;;;;;478424;249;1114;-68
2021/03/19 04:34:23;;;;;;;;;;;19.90;28.70;;;;;;478556;249;1121;-69
2021/03/19 04:36:25;;;;;;;;;;;19.80;28.70;;;;;;478450;249;1146;-69
2021/03/19 04:38:26;;;;;;;;;;;19.80;28.70;;;;;;478487;249;1007;-68
2021/03/19 04:40:27;;;;;;;;;;;19.80;28.70;;;;;;478437;249;1083;-68
2021/03/19 04:42:29;;;;;;;;;;;19.70;28.80;;;;;;478465;249;2128;-68
2021/03/19 04:44:30;;;;;;;;;;;19.70;28.80;;;;;;478487;249;1028;-68
2021/03/19 04:46:31;;;;;;;;;;;19.80;28.70;;;;;;478455;249;1324;-68
2021/03/19 04:48:32;;;;;;;;;;;19.70;28.80;;;;;;478476;249;1166;-69
2021/03/19 04:50:34;;;;;;;;;;;19.90;28.70;;;;;;478558;249;1201;-68
2021/03/19 04:52:35;;;;;;;;;;;19.70;28.70;;;;;;478579;249;1119;-68
2021/03/19 04:54:36;;;;;;;;;;;19.70;28.80;;;;;;478448;249;1055;-68
2021/03/19 04:56:38;;;;;;;;;;;19.70;28.80;;;;;;478441;246;1176;-68
2021/03/19 04:58:39;;;;;;;;;;;19.60;28.90;;;;;;478468;249;994;-68
2021/03/19 05:00:40;;;;;;;;;;;19.60;28.90;;;;;;478462;249;983;-68
2021/03/19 05:02:42;;;;;;;;;;;19.70;28.90;;;;;;478377;249;2148;-68
2021/03/19 05:04:43;;;;;;;;;;;19.70;28.80;;;;;;478492;249;965;-68
2021/03/19 05:06:44;;;;;;;;;;;19.70;28.90;;;;;;478420;249;985;-68
2021/03/19 05:08:46;;;;;;;;;;;19.60;28.90;;;;;;478424;249;1024;-68
2021/03/19 05:10:47;;;;;;;;;;;19.60;28.90;;;;;;478482;249;1013;-68
2021/03/19 05:12:48;;;;;;;;;;;19.60;28.90;;;;;;478492;249;1147;-68
2021/03/19 05:14:50;;;;;;;;;;;19.60;28.90;;;;;;478390;249;1049;-68
2021/03/19 05:16:51;;;;;;;;;;;19.60;28.90;;;;;;478378;249;1047;-68
2021/03/19 05:18:52;;;;;;;;;;;19.50;28.90;;;;;;478425;249;1307;-68
2021/03/19 05:20:54;;;;;;;;;;;19.60;29.00;;;;;;478412;249;1213;-68
2021/03/19 05:22:55;;;;;;;;;;;19.50;29.00;;;;;;478401;249;2142;-68
2021/03/19 05:24:56;;;;;;;;;;;19.50;29.00;;;;;;478448;249;1049;-68
2021/03/19 05:26:57;;;;;;;;;;;19.50;29.00;;;;;;478433;249;1159;-68
2021/03/19 05:28:59;;;;;;;;;;;19.60;28.90;;;;;;478354;249;994;-68
2021/03/19 05:31:00;;;;;;;;;;;19.60;28.90;;;;;;478318;249;1154;-68
2021/03/19 05:33:02;;;;;;;;;;;19.70;28.90;;;;;;478257;249;1192;-68
2021/03/19 05:35:03;;;;;;;;;;;19.70;28.90;;;;;;478335;249;1028;-68
2021/03/19 05:37:04;;;;;;;;;;;19.60;28.90;;;;;;478373;249;1197;-68
2021/03/19 05:39:05;;;;;;;;;;;19.60;29.00;;;;;;478383;249;1061;-68
2021/03/19 05:41:07;;;;;;;;;;;19.50;28.90;;;;;;478322;249;1341;-68
2021/03/19 05:43:08;;;;;;;;;;;19.60;29.00;;;;;;478327;249;2155;-68
2021/03/19 05:45:09;;;;;;;;;;;19.60;29.00;;;;;;478332;249;1244;-68
2021/03/19 05:47:11;;;;;;;;;;;19.60;29.00;;;;;;478284;249;1228;-68
2021/03/19 05:49:12;;;;;;;;;;;19.50;29.00;;;;;;478238;249;1104;-67
2021/03/19 05:51:13;;;;;;;;;;;19.60;29.00;;;;;;478272;249;1151;-68
2021/03/19 05:53:14;;;;;;;;;;;19.60;28.90;;;;;;478346;249;1047;-68
2021/03/19 05:55:16;;;;;;;;;;;19.60;29.00;;;;;;478364;249;1029;-68
2021/03/19 05:57:17;;;;;;;;;;;19.60;29.00;;;;;;478216;249;1073;-68
2021/03/19 05:59:18;;;;;;;;;;;19.60;29.00;;;;;;478238;249;1046;-68
2021/03/19 06:01:19;;;;;;;;;;;19.60;29.00;;;;;;478276;249;1089;-68
2021/03/19 06:03:21;;;;;;;;;;;19.60;29.00;;;;;;478187;249;2190;-68
2021/03/19 06:05:22;;;;;;;;;;;19.70;29.00;;;;;;478249;249;1033;-68
2021/03/19 06:07:23;;;;;;;;;;;19.70;28.90;;;;;;478240;249;1319;-68
2021/03/19 06:09:25;;;;;;;;;;;19.50;29.00;;;;;;478298;249;1155;-68
2021/03/19 06:11:26;;;;;;;;;;;19.50;29.00;;;;;;478354;249;1074;-68
2021/03/19 06:13:27;;;;;;;;;;;19.50;29.00;;;;;;478194;249;1114;-68
2021/03/19 06:15:28;;;;;;;;;;;19.60;29.00;;;;;;478107;245;1189;-68
2021/03/19 06:17:30;;;;;;;;;;;19.60;29.10;;;;;;478162;249;1079;-68
2021/03/19 06:19:31;;;;;;;;;;;19.60;28.90;;;;;;478308;249;1166;-68
2021/03/19 06:21:32;;;;;;;;;;;19.50;29.00;;;;;;478269;249;1396;-68
2021/03/19 06:23:34;;;;;;;;;;;19.60;29.00;;;;;;478289;249;2182;-68
2021/03/19 06:25:35;;;;;;;;;;;19.50;29.00;;;;;;478228;249;1338;-68
2021/03/19 06:27:36;;;;;;;;;;;19.60;29.00;;;;;;478281;249;1087;-68
2021/03/19 06:29:37;;;;;;;;;;;19.70;28.90;;;;;;478184;249;1057;-68
2021/03/19 06:31:40;;;;;;;;;;;19.60;28.90;;;;;;478166;249;1151;-68
2021/03/19 06:33:40;;;;;;;;;;;19.60;29.00;;;;;;478119;249;1207;-68
2021/03/19 06:35:42;;;;;;;;;;;19.60;28.90;;;;;;478140;249;1450;-68
2021/03/19 06:37:43;;;;;;;;;;;19.60;28.90;;;;;;478130;249;1234;-68
2021/03/19 06:39:45;;;;;;;;;;;19.60;28.90;;;;;;478130;249;1024;-68
2021/03/19 06:41:46;;;;;;;;;;;19.60;29.00;;;;;;478110;249;1209;-68
2021/03/19 06:43:47;;;;;;;;;;;19.60;29.00;;;;;;477998;249;2203;-68
2021/03/19 06:45:48;;;;;;;;;;;19.60;29.00;;;;;;478001;249;1053;-68
2021/03/19 06:47:50;;;;;;;;;;;19.70;28.90;;;;;;478032;249;1071;-68
2021/03/19 06:49:51;;;;;;;;;;;19.70;28.90;;;;;;478022;249;1206;-68
2021/03/19 06:51:52;;;;;;;;;;;19.80;28.80;;;;;;477950;249;1098;-68
2021/03/19 06:53:54;;;;;;;;;;;19.80;28.70;;;;;;478035;249;1094;-68
2021/03/19 06:55:55;;;;;;;;;;;19.80;28.80;;;;;;477946;249;1047;-68
2021/03/19 06:57:56;;;;;;;;;;;19.80;28.80;;;;;;478086;249;1051;-68
2021/03/19 06:59:58;;;;;;;;;;;19.90;28.80;;;;;;478067;249;1042;-68
2021/03/19 07:01:59;;;;;;;;;;;19.90;28.80;;;;;;478111;249;1032;-68
2021/03/19 07:04:02;;;;;;;;;;;19.90;28.70;;;;;;478114;249;2202;-68
2021/03/19 07:06:01;;;;;;;;;;;20.00;28.80;;;;;;478046;249;1398;-68
2021/03/19 07:08:03;;;;;;;;;;;20.00;28.70;;;;;;478072;249;1042;-68
2021/03/19 07:10:04;;;;;;;;;;;20.10;28.60;;;;;;478102;244;1146;-68
2021/03/19 07:12:05;;;;;;;;;;;20.20;28.60;;;;;;477814;249;1098;-68
2021/03/19 07:14:06;;;;;;;;;;;20.20;28.50;;;;;;478077;249;1157;-68
2021/03/19 07:16:08;;;;;;;;;;;20.20;28.60;;;;;;477978;244;1287;-68
2021/03/19 07:18:09;;;;;;;;;;;20.10;28.60;;;;;;478073;249;1072;-68
2021/03/19 07:20:10;;;;;;;;;;;20.20;28.60;;;;;;478075;249;1240;-68
2021/03/19 07:22:12;;;;;;;;;;;20.10;28.60;;;;;;478067;249;1166;-68
2021/03/19 07:24:13;;;;;;;;;;;20.20;28.60;;;;;;477908;249;2155;-68
2021/03/19 07:26:14;;;;;;;;;;;20.20;28.60;;;;;;477916;244;1559;-68
2021/03/19 07:28:16;;;;;;;;;;;20.20;28.60;;;;;;477935;249;1063;-68
2021/03/19 07:30:18;;;;;;;;;;;20.30;28.60;;;;;;477719;249;1211;-68
2021/03/19 07:32:18;;;;;;;;;;;20.30;28.60;;;;;;478013;249;1421;-68
2021/03/19 07:34:20;;;;;;;;;;;20.30;28.50;;;;;;477976;249;1144;-68
2021/03/19 07:36:21;;;;;;;;;;;20.30;28.50;;;;;;477970;249;1158;-68
2021/03/19 07:38:22;;;;;;;;;;;20.30;28.50;;;;;;477927;249;1030;-68
2021/03/19 07:40:24;;;;;;;;;;;20.30;28.50;;;;;;477979;249;1171;-68
2021/03/19 07:42:25;;;;;;;;;;;20.30;28.60;;;;;;477840;249;1153;-68
2021/03/19 07:44:26;;;;;;;;;;;20.30;28.50;;;;;;478029;249;2198;-68
2021/03/19 07:46:28;;;;;;;;;;;20.40;28.50;;;;;;477937;249;1316;-68
2021/03/19 07:48:29;;;;;;;;;;;20.40;28.50;;;;;;477848;249;1089;-68
2021/03/19 07:50:31;;;;;;;;;;;20.40;28.40;;;;;;477729;249;1211;-68
2021/03/19 07:52:32;;;;;;;;;;;20.50;28.30;;;;;;477940;244;1208;-68
2021/03/19 07:54:33;;;;;;;;;;;20.50;28.30;;;;;;477862;249;1245;-68
2021/03/19 07:56:34;;;;;;;;;;;20.40;28.30;;;;;;477861;245;1195;-68
2021/03/19 07:58:36;;;;;;;;;;;20.50;28.30;;;;;;477731;249;1098;-68
2021/03/19 08:00:37;;;;;;;;;;;20.50;28.40;;;;;;477649;249;1049;-68
2021/03/19 08:02:38;;;;;;;;;;;20.50;28.40;;;;;;477702;249;1135;-68
2021/03/19 08:04:39;;;;;;;;;;;20.40;28.40;;;;;;477756;249;2194;-68
2021/03/19 08:06:42;;;;;;;;;;;20.50;28.40;;;;;;477725;249;1245;-68
2021/03/19 08:08:43;;;;;;;;;;;20.40;28.50;;;;;;477821;249;1279;-68
2021/03/19 08:10:44;;;;;;;;;;;20.30;28.50;;;;;;477474;249;1248;-68
2021/03/19 08:12:48;;;;;;;;;;;20.40;28.60;;;;;;477677;249;1110;-68
2021/03/19 08:14:46;;;;;;;;;;;20.40;28.60;;;;;;477511;249;1230;-68
2021/03/19 08:16:48;;;;;;;;;;;20.40;28.60;;;;;;477574;249;1112;-68
2021/03/19 08:18:49;;;;;;;;;;;20.50;28.50;;;;;;477564;249;1135;-68
2021/03/19 08:20:50;;;;;;;;;;;20.50;28.50;;;;;;477523;249;1185;-68
2021/03/19 08:22:51;;;;;;;;;;;20.50;28.50;;;;;;477600;249;1078;-68
2021/03/19 08:24:53;;;;;;;;;;;20.50;28.50;;;;;;477578;249;2186;-68
2021/03/19 08:26:54;;;;;;;;;;;20.60;28.40;;;;;;477603;249;1310;-68
2021/03/19 08:28:56;;;;;;;;;;;20.60;28.50;;;;;;477537;249;1073;-68
2021/03/19 08:30:57;;;;;;;;;;;20.80;28.40;;;;;;477544;249;1091;-68
2021/03/19 08:32:58;;;;;;;;;;;20.60;28.60;;;;;;477551;249;1154;-68
2021/03/19 08:35:00;;;;;;;;;;;20.40;28.60;;;;;;477665;249;1068;-69
2021/03/19 08:37:01;;;;;;;;;;;20.40;28.80;;;;;;477732;249;1255;-68
2021/03/19 08:39:02;;;;;;;;;;;20.50;28.80;;;;;;478113;249;1303;-68
2021/03/19 08:41:03;;;;;;;;;;;20.40;28.80;;;;;;478519;249;1110;-68
2021/03/19 08:43:05;;;;;;;;;;;20.40;28.90;;;;;;478330;249;946;-69
2021/03/19 08:45:06;;;;;;;;;;;20.40;28.90;;;;;;478024;249;2190;-68
2021/03/19 08:47:07;;;;;;;;;;;20.40;28.90;;;;;;478078;249;1127;-69
2021/03/19 08:49:08;;;;;;;;;;;20.30;29.10;;;;;;477985;244;1185;-68
2021/03/19 08:51:10;;;;;;;;;;;20.30;29.10;;;;;;477916;249;1165;-68
2021/03/19 08:53:13;;;;;;;;;;;20.30;29.10;;;;;;478463;249;1141;-68
2021/03/19 08:55:13;;;;;;;;;;;20.30;29.10;;;;;;477956;249;1296;-68
2021/03/19 08:57:15;;;;;;;;;;;20.30;29.20;;;;;;478476;249;1159;-68
2021/03/19 08:59:15;;;;;;;;;;;20.20;29.20;;;;;;478782;244;2182;-68
2021/03/19 09:01:16;;;;;;;;;;;20.20;29.20;;;;;;478505;249;1181;-68
2021/03/19 09:03:18;;;;;;;;;;;20.20;29.30;;;;;;478393;249;1343;-68
2021/03/19 09:05:19;;;;;;;;;;;20.10;29.30;;;;;;478470;249;2186;-68
2021/03/19 09:07:20;;;;;;;;;;;20.10;29.30;;;;;;477957;249;1091;-68
2021/03/19 09:09:21;;;;;;;;;;;20.10;29.30;;;;;;477967;249;840;-68
2021/03/19 09:11:23;;;;;;;;;;;20.10;29.40;;;;;;477932;249;1187;-68
2021/03/19 09:13:24;;;;;;;;;;;20.20;29.30;;;;;;478408;249;903;-68
2021/03/19 09:15:26;;;;;;;;;;;20.10;29.30;;;;;;478060;249;1277;-68
2021/03/19 09:17:27;;;;;;;;;;;20.20;29.40;;;;;;478087;249;1133;-68
2021/03/19 09:19:28;;;;;;;;;;;20.10;29.40;;;;;;478515;249;855;-68
2021/03/19 09:21:29;;;;;;;;;;;20.10;29.50;;;;;;478241;249;1213;-68
2021/03/19 09:23:30;;;;;;;;;;;20.00;29.50;;;;;;477549;249;1115;-68
2021/03/19 09:25:32;;;;;;;;;;;20.10;29.50;;;;;;477456;249;2186;-68
2021/03/19 09:27:33;;;;;;;;;;;20.10;29.50;;;;;;477388;249;1381;-68
2021/03/19 09:29:34;;;;;;;;;;;20.10;29.50;;;;;;477400;249;1149;-68
2021/03/19 09:31:37;;;;;;;;;;;20.20;29.40;;;;;;477401;249;1446;-68
2021/03/19 09:33:38;;;;;;;;;;;20.10;29.40;;;;;;477452;249;1153;-68
2021/03/19 09:35:39;;;;;;;;;;;20.10;29.50;;;;;;477572;249;1184;-68
2021/03/19 09:37:40;;;;;;;;;;;20.20;29.50;;;;;;477553;249;1286;-68
2021/03/19 09:39:41;;;;;;;;;;;20.10;29.50;;;;;;477380;249;1208;-68
2021/03/19 09:41:43;;;;;;;;;;;20.20;29.50;;;;;;477352;249;1385;-68
2021/03/19 09:43:44;;;;;;;;;;;20.20;29.40;;;;;;477428;249;1155;-68
2021/03/19 09:45:48;;;;;;;;;;;20.30;29.40;;;;;;477419;248;2182;-68
2021/03/19 09:47:47;;;;;;;;;;;20.30;29.50;;;;;;477296;249;1372;-68
2021/03/19 09:49:48;;;;;;;;;;;20.20;29.50;;;;;;477417;249;1182;-68
2021/03/19 09:51:49;;;;;;;;;;;20.10;29.60;;;;;;477376;249;1465;-68
2021/03/19 09:53:50;;;;;;;;;;;20.10;29.60;;;;;;477690;249;1123;-68
2021/03/19 09:55:52;;;;;;;;;;;20.10;29.60;;;;;;476872;249;1058;-68
2021/03/19 09:57:53;;;;;;;;;;;20.10;29.60;;;;;;477571;249;1101;-68
2021/03/19 09:59:54;;;;;;;;;;;20.10;29.50;;;;;;477754;249;1111;-68
2021/03/19 10:01:56;;;;;;;;;;;20.10;29.60;;;;;;477618;249;1102;-68
2021/03/19 10:03:59;;;;;;;;;;;20.10;29.60;;;;;;477590;249;1095;-68
2021/03/19 10:05:59;;;;;;;;;;;20.20;29.60;;;;;;477546;249;2191;-68
2021/03/19 10:08:00;;;;;;;;;;;20.20;29.60;;;;;;477586;249;1107;-68
2021/03/19 10:10:01;;;;;;;;;;;20.20;29.50;;;;;;477538;249;1397;-68
2021/03/19 10:12:02;;;;;;;;;;;20.20;29.60;;;;;;477540;249;1092;-68
2021/03/19 10:14:04;;;;;;;;;;;20.20;29.60;;;;;;477473;249;1115;-68
2021/03/19 10:16:05;;;;;;;;;;;20.20;29.70;;;;;;477474;249;1165;-68
2021/03/19 10:18:07;;;;;;;;;;;20.20;29.70;;;;;;477480;249;1102;-68
2021/03/19 10:20:08;;;;;;;;;;;20.30;29.70;;;;;;477538;249;1192;-68
2021/03/19 10:22:09;;;;;;;;;;;20.20;29.70;;;;;;477582;249;1265;-68
2021/03/19 10:24:11;;;;;;;;;;;20.20;29.80;;;;;;477547;249;1103;-68
2021/03/19 10:26:12;;;;;;;;;;;20.20;29.80;;;;;;477520;249;2183;-68
2021/03/19 10:28:16;;;;;;;;;;;20.30;29.70;;;;;;477474;249;1104;-68
2021/03/19 10:30:15;;;;;;;;;;;20.20;29.80;;;;;;477466;249;1444;-68
2021/03/19 10:32:16;;;;;;;;;;;20.30;29.60;;;;;;477477;249;1255;-68
2021/03/19 10:34:17;;;;;;;;;;;20.30;29.70;;;;;;477545;249;1308;-68
2021/03/19 10:36:19;;;;;;;;;;;20.30;29.70;;;;;;477542;249;1379;-68
2021/03/19 10:38:20;;;;;;;;;;;20.20;29.80;;;;;;477408;249;1112;-68
2021/03/19 10:40:21;;;;;;;;;;;20.20;29.90;;;;;;477333;249;1097;-68
2021/03/19 10:42:23;;;;;;;;;;;20.20;30.00;;;;;;477648;249;1228;-69
2021/03/19 10:44:24;;;;;;;;;;;20.10;30.10;;;;;;478200;249;1227;-68
2021/03/19 10:46:25;;;;;;;;;;;20.20;30.10;;;;;;478271;249;2190;-68
2021/03/19 10:48:26;;;;;;;;;;;20.20;30.00;;;;;;478473;249;847;-68
2021/03/19 10:50:28;;;;;;;;;;;20.30;30.00;;;;;;478096;249;985;-69
2021/03/19 10:52:30;;;;;;;;;;;20.30;29.90;;;;;;478111;249;1211;-69
2021/03/19 10:54:33;;;;;;;;;;;20.30;29.80;;;;;;478522;249;1349;-68
2021/03/19 10:56:33;;;;;;;;;;;20.50;29.70;;;;;;477938;249;1248;-68
2021/03/19 10:58:35;;;;;;;;;;;20.40;29.70;;;;;;477397;249;1230;-68
2021/03/19 11:00:38;;;;;;;;;;;20.50;29.70;;;;;;477401;249;1281;-68
2021/03/19 11:02:37;;;;;;;;;;;20.60;29.50;;;;;;477282;249;1943;-68
2021/03/19 11:04:38;;;;;;;;;;;20.60;29.50;;;;;;477734;249;2191;-68
2021/03/19 11:06:40;;;;;;;;;;;20.50;29.50;;;;;;477720;249;1134;-68
2021/03/19 11:08:41;;;;;;;;;;;20.50;29.60;;;;;;477770;249;1227;-68
2021/03/19 11:10:43;;;;;;;;;;;20.50;29.60;;;;;;477642;249;1397;-68
2021/03/19 11:12:44;;;;;;;;;;;20.60;29.60;;;;;;478292;249;1199;-68
2021/03/19 11:14:45;;;;;;;;;;;20.60;29.60;;;;;;478067;249;767;-68
2021/03/19 11:16:47;;;;;;;;;;;20.70;29.60;;;;;;477510;249;1049;-68
2021/03/19 11:18:48;;;;;;;;;;;20.70;29.60;;;;;;478002;249;794;-68
2021/03/19 11:20:49;;;;;;;;;;;20.70;29.60;;;;;;478125;249;1036;-68
2021/03/19 11:22:51;;;;;;;;;;;20.70;29.60;;;;;;477815;249;1323;-68
2021/03/19 11:24:52;;;;;;;;;;;20.60;29.70;;;;;;478281;249;2191;-68
2021/03/19 11:26:53;;;;;;;;;;;20.70;29.60;;;;;;477688;249;1160;-68
2021/03/19 11:28:54;;;;;;;;;;;20.70;29.50;;;;;;478151;249;739;-68
2021/03/19 11:30:55;;;;;;;;;;;20.80;29.50;;;;;;477763;249;773;-68
2021/03/19 11:32:57;;;;;;;;;;;20.80;29.40;;;;;;477773;249;1040;-68
2021/03/19 11:34:58;;;;;;;;;;;20.80;29.40;;;;;;478363;249;971;-68
2021/03/19 11:37:01;;;;;;;;;;;20.70;29.40;;;;;;477939;249;1216;-68
2021/03/19 11:39:01;;;;;;;;;;;20.80;29.40;;;;;;477775;249;1281;-68
2021/03/19 11:41:02;;;;;;;;;;;20.70;29.40;;;;;;478085;249;1475;-68
2021/03/19 11:43:04;;;;;;;;;;;20.70;29.30;;;;;;477511;249;790;-68
2021/03/19 11:45:04;;;;;;;;;;;20.70;29.40;;;;;;477273;249;2206;-68
2021/03/19 11:47:06;;;;;;;;;;;20.70;29.40;;;;;;477383;245;1629;-68
2021/03/19 11:49:07;;;;;;;;;;;20.60;29.40;;;;;;478314;249;1048;-68
2021/03/19 11:51:09;;;;;;;;;;;20.70;29.40;;;;;;477586;249;1284;-68
2021/03/19 11:53:10;;;;;;;;;;;20.70;29.40;;;;;;477692;249;1154;-68
2021/03/19 11:55:11;;;;;;;;;;;20.70;29.40;;;;;;477659;249;1074;-68
2021/03/19 11:57:12;;;;;;;;;;;20.60;29.40;;;;;;477656;249;1317;-68